Time;durP1;ratioP1;P1;durP2;ratioP2;P2;SDS_P1;SDS_P2;PMS_P1;PMS_P2;Temp;Humidity;BMP_temperature;BMP_pressure;BME280_temperature;BME280_humidity;BME280_pressure;Samples;Min_cycle;Max_cycle;Signal;HPM_P1;HPM_P2
2022/03/04 00:02:15;;;;;;;21.40;8.50;;;0.00;99.90;;;;;;4936184;29;20073;-86
2022/03/04 00:04:41;;;;;;;20.80;9.07;;;-0.10;99.90;;;;;;4937508;29;20122;-86
2022/03/04 00:07:07;;;;;;;20.03;8.37;;;-0.10;99.90;;;;;;4936802;29;20151;-86
2022/03/04 00:09:33;;;;;;;19.00;8.80;;;-0.20;99.90;;;;;;4936350;29;20105;-86
2022/03/04 00:12:00;;;;;;;20.47;8.80;;;-0.20;99.90;;;;;;4937251;29;20035;-87
2022/03/04 00:14:25;;;;;;;20.37;8.73;;;-0.10;99.90;;;;;;4939124;29;20031;-86
2022/03/04 00:16:53;;;;;;;21.93;9.07;;;-0.10;99.90;;;;;;4940422;29;20496;-87
2022/03/04 00:19:18;;;;;;;23.87;8.97;;;-0.20;99.90;;;;;;4940676;29;20043;-86
2022/03/04 00:21:48;;;;;;;21.03;8.53;;;-0.30;99.90;;;;;;4941328;29;20380;-86
2022/03/04 00:24:14;;;;;;;20.50;8.70;;;-0.30;99.90;;;;;;4957274;29;20071;-87
2022/03/04 00:26:40;;;;;;;19.70;8.27;;;-0.30;99.90;;;;;;4940916;29;20057;-86
2022/03/04 00:29:07;;;;;;;23.20;9.50;;;-0.40;99.90;;;;;;4939682;29;20079;-87
2022/03/04 00:31:34;;;;;;;22.90;8.80;;;-0.40;99.90;;;;;;4940845;29;20058;-86
2022/03/04 00:34:00;;;;;;;22.17;8.77;;;-0.40;99.90;;;;;;4941798;29;20093;-87
2022/03/04 00:36:27;;;;;;;20.77;8.83;;;-0.50;99.90;;;;;;4939792;29;20522;-87
2022/03/04 00:38:54;;;;;;;21.40;9.50;;;-0.50;99.90;;;;;;4940619;29;20130;-87
2022/03/04 00:41:22;;;;;;;20.87;9.30;;;-0.30;99.90;;;;;;4940662;29;20638;-87
2022/03/04 00:43:48;;;;;;;22.43;9.10;;;-0.30;99.90;;;;;;4940058;29;20066;-86
2022/03/04 00:46:14;;;;;;;21.83;8.80;;;-0.50;99.90;;;;;;4940549;29;20043;-87
2022/03/04 00:48:43;;;;;;;20.77;8.77;;;-0.60;99.90;;;;;;4940361;29;20051;-87
2022/03/04 00:51:09;;;;;;;23.53;9.40;;;-0.60;99.90;;;;;;4939474;29;20047;-87
2022/03/04 00:53:36;;;;;;;25.23;8.90;;;-0.60;99.90;;;;;;4940622;29;20051;-87
2022/03/04 00:56:02;;;;;;;22.00;9.37;;;-0.70;99.90;;;;;;4940699;29;20102;-87
2022/03/04 00:58:27;;;;;;;20.87;9.50;;;-0.80;99.90;;;;;;4939353;29;20130;-87
2022/03/04 01:00:53;;;;;;;23.30;10.17;;;-0.60;99.90;;;;;;4940593;29;20146;-87
2022/03/04 01:03:19;;;;;;;24.87;9.70;;;-0.80;99.90;;;;;;4940188;29;20058;-87
2022/03/04 01:05:44;;;;;;;23.63;9.43;;;-0.80;99.90;;;;;;4939504;29;20047;-87
2022/03/04 01:08:10;;;;;;;26.13;10.50;;;-0.90;99.90;;;;;;4939649;29;20059;-87
2022/03/04 01:10:37;;;;;;;24.73;9.87;;;-1.00;99.90;;;;;;4940137;29;20047;-87
2022/03/04 01:13:02;;;;;;;25.67;9.67;;;-1.00;99.90;;;;;;4939239;29;20054;-87
2022/03/04 01:15:28;;;;;;;25.57;9.30;;;-1.00;99.90;;;;;;4939905;29;20402;-87
2022/03/04 01:17:53;;;;;;;25.20;9.37;;;-1.00;99.90;;;;;;4940006;29;20471;-87
2022/03/04 01:20:19;;;;;;;26.77;10.07;;;-1.10;99.90;;;;;;4938887;29;20081;-87
2022/03/04 01:22:45;;;;;;;25.93;9.63;;;-1.10;99.90;;;;;;4940059;29;20556;-87
2022/03/04 01:25:11;;;;;;;26.90;10.20;;;-1.10;99.90;;;;;;4939637;29;20446;-87
2022/03/04 01:27:37;;;;;;;27.03;10.53;;;-1.20;99.90;;;;;;4939027;29;20047;-87
2022/03/04 01:30:05;;;;;;;26.10;10.47;;;-1.10;99.90;;;;;;4957107;29;20516;-87
2022/03/04 01:32:31;;;;;;;26.00;10.30;;;-1.20;99.90;;;;;;4956259;29;20533;-87
2022/03/04 01:34:57;;;;;;;26.90;10.60;;;-1.20;99.90;;;;;;4939620;29;20062;-87
2022/03/04 01:37:22;;;;;;;28.60;10.70;;;-1.20;99.90;;;;;;4939318;29;20114;-87
2022/03/04 01:39:48;;;;;;;25.63;10.57;;;-1.30;99.90;;;;;;4939057;29;20043;-87
2022/03/04 01:42:14;;;;;;;25.63;9.60;;;-1.40;99.90;;;;;;4939380;29;20503;-87
2022/03/04 01:44:40;;;;;;;26.17;10.23;;;-1.40;99.90;;;;;;4939490;29;20102;-87
2022/03/04 01:47:06;;;;;;;26.10;10.23;;;-1.40;99.90;;;;;;4938474;29;20043;-87
2022/03/04 01:49:32;;;;;;;24.73;10.20;;;-1.50;99.90;;;;;;4939201;29;20500;-87
2022/03/04 01:51:57;;;;;;;28.97;10.87;;;-1.50;99.90;;;;;;4939342;29;20078;-87
2022/03/04 01:54:23;;;;;;;26.27;10.80;;;-1.50;99.90;;;;;;4938372;29;20251;-87
2022/03/04 01:56:48;;;;;;;26.37;10.97;;;-1.60;99.90;;;;;;4939634;29;20377;-87
2022/03/04 01:59:14;;;;;;;26.73;10.30;;;-1.60;99.90;;;;;;4938507;29;20427;-87
2022/03/04 02:01:40;;;;;;;27.50;11.07;;;-1.40;99.90;;;;;;4938664;29;20051;-87
2022/03/04 02:04:05;;;;;;;27.50;11.23;;;-1.60;99.90;;;;;;4939840;29;20047;-86
2022/03/04 02:06:31;;;;;;;27.17;10.90;;;-1.60;99.90;;;;;;4939500;29;20527;-87
2022/03/04 02:08:56;;;;;;;26.37;10.67;;;-1.60;99.90;;;;;;4938360;29;20045;-87
2022/03/04 02:11:22;;;;;;;29.27;11.23;;;-1.60;99.90;;;;;;4939040;29;20051;-87
2022/03/04 02:13:48;;;;;;;31.27;12.97;;;-1.60;99.90;;;;;;4939094;29;20039;-87
2022/03/04 02:16:34;;;;;;;28.90;11.23;;;-1.60;99.90;;;;;;4938220;29;20591;-87
2022/03/04 02:19:00;;;;;;;29.80;11.37;;;-1.70;99.90;;;;;;4939320;29;20439;-87
2022/03/04 02:21:26;;;;;;;28.50;11.13;;;-1.70;99.90;;;;;;4938504;29;20050;-87
2022/03/04 02:23:52;;;;;;;31.50;12.43;;;-1.70;99.90;;;;;;4956384;29;20048;-87
2022/03/04 02:26:18;;;;;;;30.97;12.40;;;-1.80;99.90;;;;;;4938668;29;20098;-87
2022/03/04 02:28:45;;;;;;;32.70;11.67;;;-1.50;99.90;;;;;;4937890;29;20055;-87
2022/03/04 02:31:17;;;;;;;31.63;11.60;;;-1.80;99.90;;;;;;4938295;29;20043;-87
2022/03/04 02:33:43;;;;;;;31.57;12.73;;;-1.90;99.90;;;;;;4939484;29;20101;-87
2022/03/04 02:36:09;;;;;;;29.60;12.60;;;-1.90;99.90;;;;;;4954475;28;20496;-87
2022/03/04 02:38:34;;;;;;;30.37;12.23;;;-1.90;99.90;;;;;;4938625;29;20059;-87
2022/03/04 02:41:00;;;;;;;31.10;12.60;;;-1.90;99.90;;;;;;4939133;29;20051;-87
2022/03/04 02:43:25;;;;;;;31.73;12.57;;;-1.90;99.90;;;;;;4937689;29;20567;-87
2022/03/04 02:45:52;;;;;;;30.83;12.43;;;-1.90;99.90;;;;;;4938264;29;20510;-87
2022/03/04 02:48:20;;;;;;;34.07;13.27;;;-1.90;99.90;;;;;;4938329;29;20137;-87
2022/03/04 02:50:45;;;;;;;32.80;12.60;;;-1.90;99.90;;;;;;4937798;29;20053;-87
2022/03/04 02:53:11;;;;;;;32.90;12.57;;;-1.90;99.90;;;;;;4938104;29;20043;-87
2022/03/04 02:55:37;;;;;;;33.10;13.17;;;-1.90;99.90;;;;;;4938689;29;20106;-87
2022/03/04 02:58:03;;;;;;;37.23;14.00;;;-1.70;99.90;;;;;;4937753;29;20511;-87
2022/03/04 03:00:29;;;;;;;29.33;12.63;;;-1.90;99.90;;;;;;4938103;29;20050;-87
2022/03/04 03:02:54;;;;;;;33.33;12.70;;;-1.80;99.90;;;;;;4953602;29;20047;-87
2022/03/04 03:05:20;;;;;;;34.57;12.90;;;-1.90;99.90;;;;;;4936508;29;20066;-87
2022/03/04 03:07:46;;;;;;;31.30;12.63;;;-1.90;99.90;;;;;;4938037;29;20055;-87
2022/03/04 03:10:12;;;;;;;31.33;12.63;;;-1.90;99.90;;;;;;4937888;29;20046;-87
2022/03/04 03:12:39;;;;;;;33.20;13.07;;;-1.80;99.90;;;;;;4937120;29;20117;-87
2022/03/04 03:15:06;;;;;;;34.80;14.33;;;-1.70;99.90;;;;;;4937782;29;20090;-87
2022/03/04 03:17:31;;;;;;;33.80;13.27;;;-1.70;99.90;;;;;;4937918;29;20054;-87
2022/03/04 03:19:57;;;;;;;36.97;13.67;;;-1.60;99.90;;;;;;4937090;29;20043;-87
2022/03/04 03:22:22;;;;;;;34.47;13.80;;;-1.60;99.90;;;;;;4937864;29;20106;-87
2022/03/04 03:24:48;;;;;;;32.33;13.60;;;-1.60;99.90;;;;;;4937324;29;20066;-86
2022/03/04 03:27:14;;;;;;;36.80;14.13;;;-1.60;99.90;;;;;;4937504;29;20101;-87
2022/03/04 03:29:42;;;;;;;32.43;12.93;;;-1.40;99.90;;;;;;4937845;29;20122;-87
2022/03/04 03:32:10;;;;;;;33.87;13.73;;;-1.60;99.90;;;;;;4936790;29;20159;-87
2022/03/04 03:34:36;;;;;;;32.83;13.13;;;-1.60;99.90;;;;;;4937471;29;20066;-86
2022/03/04 03:37:02;;;;;;;34.37;13.03;;;-1.60;99.90;;;;;;4937637;29;20043;-87
2022/03/04 03:39:28;;;;;;;34.17;13.30;;;-1.50;99.90;;;;;;4936771;29;20143;-87
2022/03/04 03:41:53;;;;;;;34.57;13.83;;;-1.60;99.90;;;;;;4937591;29;20043;-87
2022/03/04 03:44:19;;;;;;;31.60;14.17;;;-1.60;99.90;;;;;;4937027;29;20051;-87
2022/03/04 03:46:45;;;;;;;33.47;12.77;;;-1.60;99.90;;;;;;4937003;29;20396;-87
2022/03/04 03:49:11;;;;;;;31.57;13.30;;;-1.60;99.90;;;;;;4936449;29;20130;-87
2022/03/04 03:51:36;;;;;;;35.03;14.07;;;-1.60;99.90;;;;;;4937684;29;20042;-87
2022/03/04 03:54:02;;;;;;;33.00;13.80;;;-1.70;99.90;;;;;;4936508;29;20039;-87
2022/03/04 03:56:28;;;;;;;31.77;12.80;;;-1.70;99.90;;;;;;4937192;29;20392;-87
2022/03/04 03:58:53;;;;;;;32.90;13.40;;;-1.70;99.90;;;;;;4937384;29;20043;-87
2022/03/04 04:01:19;;;;;;;29.27;13.40;;;-1.70;99.90;;;;;;4936627;29;20047;-87
2022/03/04 04:03:45;;;;;;;34.10;13.30;;;-1.70;99.90;;;;;;4937288;29;20408;-87
2022/03/04 04:06:11;;;;;;;33.73;13.40;;;-1.70;99.90;;;;;;4936849;29;20050;-86
2022/03/04 04:08:36;;;;;;;32.50;13.10;;;-1.70;99.90;;;;;;4936499;29;20043;-87
2022/03/04 04:11:02;;;;;;;35.83;14.93;;;-1.70;99.90;;;;;;4937307;29;20043;-87
2022/03/04 04:13:28;;;;;;;34.80;13.50;;;-1.70;99.90;;;;;;4937139;29;20507;-86
2022/03/04 04:15:53;;;;;;;32.30;13.20;;;-1.70;99.90;;;;;;4937356;29;20159;-87
2022/03/04 04:18:19;;;;;;;32.13;13.13;;;-1.60;99.90;;;;;;4937451;29;20043;-87
2022/03/04 04:20:45;;;;;;;35.63;15.00;;;-1.60;99.90;;;;;;4937496;29;20476;-87
2022/03/04 04:23:10;;;;;;;35.63;14.03;;;-1.50;99.90;;;;;;4936895;29;20086;-86
2022/03/04 04:25:36;;;;;;;38.90;13.97;;;-1.50;99.90;;;;;;4937438;29;20435;-87
2022/03/04 04:28:02;;;;;;;30.57;12.80;;;-1.50;99.90;;;;;;4936990;29;20134;-86
2022/03/04 04:30:29;;;;;;;34.20;13.33;;;-1.50;99.90;;;;;;4936364;29;20090;-87
2022/03/04 04:32:55;;;;;;;36.10;13.93;;;-1.50;99.90;;;;;;4937270;29;20050;-86
2022/03/04 04:35:21;;;;;;;35.10;13.63;;;-1.50;99.90;;;;;;4935725;29;20064;-87
2022/03/04 04:37:46;;;;;;;31.37;13.07;;;-0.50;99.90;;;;;;4936972;29;20400;-87
2022/03/04 04:40:12;;;;;;;34.00;14.50;;;-1.50;99.90;;;;;;4937024;29;20078;-87
2022/03/04 04:42:38;;;;;;;32.33;13.70;;;-1.50;99.90;;;;;;4936248;29;20502;-87
2022/03/04 04:45:04;;;;;;;35.93;13.50;;;-1.40;99.90;;;;;;4936847;29;20063;-87
2022/03/04 04:47:29;;;;;;;32.50;13.43;;;-1.40;99.90;;;;;;4936881;29;20411;-87
2022/03/04 04:49:55;;;;;;;34.97;14.37;;;-1.40;99.90;;;;;;4936392;29;20124;-87
2022/03/04 04:52:21;;;;;;;33.23;13.67;;;-1.50;99.90;;;;;;4936717;29;20043;-86
2022/03/04 04:54:46;;;;;;;34.07;15.07;;;-1.50;99.90;;;;;;4936788;29;20054;-87
2022/03/04 04:57:12;;;;;;;41.13;15.00;;;-1.40;99.90;;;;;;4936291;29;20098;-86
2022/03/04 04:59:38;;;;;;;36.93;13.20;;;-1.40;99.90;;;;;;4937608;29;20054;-87
2022/03/04 05:02:04;;;;;;;34.30;13.87;;;-1.40;99.90;;;;;;4939350;29;20043;-86
2022/03/04 05:04:29;;;;;;;36.10;14.13;;;-1.50;99.90;;;;;;4953278;28;20050;-86
2022/03/04 05:06:56;;;;;;;33.53;14.53;;;-1.50;99.90;;;;;;4959187;28;20050;-86
2022/03/04 05:09:21;;;;;;;34.60;14.27;;;-1.50;99.90;;;;;;4959018;28;20047;-86
2022/03/04 05:11:47;;;;;;;33.87;14.10;;;-1.50;99.90;;;;;;4958652;28;20042;-87
2022/03/04 05:14:13;;;;;;;33.33;14.13;;;-1.50;99.90;;;;;;4959089;28;20129;-87
2022/03/04 05:16:39;;;;;;;32.27;13.63;;;-1.50;99.90;;;;;;4959151;28;20050;-86
2022/03/04 05:19:04;;;;;;;32.93;14.57;;;-1.50;99.90;;;;;;4957935;28;20055;-86
2022/03/04 05:21:30;;;;;;;33.93;13.83;;;-1.50;99.90;;;;;;4959021;28;20043;-86
2022/03/04 05:24:02;;;;;;;33.10;14.30;;;-1.40;99.90;;;;;;4959330;28;20439;-87
2022/03/04 05:26:41;;;;;;;33.23;13.23;;;-1.40;99.90;;;;;;4957902;28;20042;-86
2022/03/04 05:29:09;;;;;;;31.80;13.33;;;-1.40;99.90;;;;;;4958501;28;20078;-86
2022/03/04 05:31:35;;;;;;;34.20;13.60;;;-1.40;99.90;;;;;;4958674;28;20069;-87
2022/03/04 05:34:01;;;;;;;34.23;13.60;;;-1.40;99.90;;;;;;4958800;28;20051;-86
2022/03/04 05:36:27;;;;;;;33.87;14.30;;;-1.10;99.90;;;;;;4958654;28;20407;-87
2022/03/04 05:38:53;;;;;;;34.10;14.30;;;-1.40;99.90;;;;;;4958299;28;20095;-87
2022/03/04 05:41:18;;;;;;;31.53;13.33;;;-1.30;99.90;;;;;;4958775;28;20050;-87
2022/03/04 05:43:45;;;;;;;30.03;13.23;;;-1.40;99.90;;;;;;4958692;28;20050;-86
2022/03/04 05:46:12;;;;;;;33.77;14.00;;;-1.40;99.90;;;;;;4957645;28;20047;-86
2022/03/04 05:48:37;;;;;;;36.80;14.67;;;-1.50;99.90;;;;;;4958585;28;20415;-86
2022/03/04 05:51:03;;;;;;;32.67;13.87;;;-1.50;99.90;;;;;;4958675;28;20051;-86
2022/03/04 05:53:30;;;;;;;34.10;13.23;;;-1.50;99.90;;;;;;4957875;28;20043;-87
2022/03/04 05:55:55;;;;;;;32.63;13.43;;;-1.50;99.90;;;;;;4958791;28;20047;-87
2022/03/04 05:58:21;;;;;;;34.93;14.07;;;-1.60;99.90;;;;;;4958300;28;20526;-86
2022/03/04 06:00:47;;;;;;;32.10;12.57;;;-1.50;99.90;;;;;;4958048;28;20098;-86
2022/03/04 06:03:12;;;;;;;35.00;13.40;;;-1.60;99.90;;;;;;4958775;28;20522;-86
2022/03/04 06:05:38;;;;;;;34.97;13.97;;;-1.60;99.90;;;;;;4977058;28;20039;-86
2022/03/04 06:08:04;;;;;;;31.00;13.27;;;-1.50;99.90;;;;;;4957281;28;20384;-86
2022/03/04 06:10:29;;;;;;;34.73;13.83;;;-1.50;99.90;;;;;;4958137;28;20042;-86
2022/03/04 06:12:55;;;;;;;38.07;14.17;;;-1.60;99.90;;;;;;4959469;28;20065;-86
2022/03/04 06:15:20;;;;;;;33.30;14.60;;;-1.60;99.90;;;;;;4957662;28;20046;-86
2022/03/04 06:17:50;;;;;;;35.53;14.10;;;-1.30;99.90;;;;;;4975492;28;20051;-87
2022/03/04 06:20:17;;;;;;;33.93;14.13;;;-1.60;99.90;;;;;;4957901;28;20050;-86
2022/03/04 06:22:43;;;;;;;36.27;15.03;;;-1.50;99.90;;;;;;4957558;28;20498;-86
2022/03/04 06:25:10;;;;;;;32.77;14.97;;;-1.50;99.90;;;;;;4957749;28;20047;-86
2022/03/04 06:27:36;;;;;;;33.83;13.27;;;-1.50;99.90;;;;;;4958649;28;20039;-86
2022/03/04 06:30:04;;;;;;;34.83;13.87;;;-1.50;99.90;;;;;;4957215;28;20054;-86
2022/03/04 06:32:30;;;;;;;36.17;14.83;;;-1.50;99.90;;;;;;4957972;28;20042;-86
2022/03/04 06:34:57;;;;;;;34.23;14.67;;;-1.50;99.90;;;;;;4956601;28;20081;-86
2022/03/04 06:37:23;;;;;;;34.10;14.70;;;-1.50;99.90;;;;;;4957507;28;20057;-86
2022/03/04 06:39:49;;;;;;;36.17;14.53;;;-1.40;99.90;;;;;;4975164;28;20043;-86
2022/03/04 06:42:14;;;;;;;35.70;15.33;;;-1.50;99.90;;;;;;4956985;28;20418;-86
2022/03/04 06:44:40;;;;;;;31.43;14.43;;;-1.40;99.90;;;;;;4957375;28;20505;-86
2022/03/04 06:47:07;;;;;;;33.07;14.47;;;-1.20;99.90;;;;;;4957265;28;20041;-86
2022/03/04 06:49:33;;;;;;;33.93;14.37;;;-1.10;99.90;;;;;;4956598;28;20051;-86
2022/03/04 06:51:58;;;;;;;33.83;14.47;;;-1.40;99.90;;;;;;4975088;28;20042;-86
2022/03/04 06:54:24;;;;;;;31.20;13.27;;;-1.40;99.90;;;;;;4957423;28;20467;-86
2022/03/04 06:56:50;;;;;;;30.67;13.33;;;-1.40;99.90;;;;;;4956997;28;20042;-86
2022/03/04 06:59:15;;;;;;;34.43;13.93;;;-1.40;99.90;;;;;;4956982;28;20050;-86
2022/03/04 07:01:41;;;;;;;30.63;14.37;;;-1.40;99.90;;;;;;4957348;28;20387;-86
2022/03/04 07:04:06;;;;;;;35.03;14.83;;;-1.40;99.90;;;;;;4956127;28;20050;-85
2022/03/04 07:06:32;;;;;;;36.30;14.77;;;-1.40;99.90;;;;;;4957600;28;20050;-86
2022/03/04 07:08:57;;;;;;;32.37;14.30;;;-1.30;99.90;;;;;;4957314;28;20059;-86
2022/03/04 07:11:23;;;;;;;32.07;14.17;;;-1.30;99.90;;;;;;4973583;28;20066;-86
2022/03/04 07:13:49;;;;;;;34.07;15.07;;;-1.30;99.90;;;;;;4957081;28;20050;-86
2022/03/04 07:16:14;;;;;;;33.23;14.90;;;-1.30;99.90;;;;;;4974522;28;20394;-86
2022/03/04 07:18:40;;;;;;;35.47;14.23;;;-1.30;99.90;;;;;;4956648;28;20070;-86
2022/03/04 07:21:05;;;;;;;34.60;14.67;;;-1.30;99.90;;;;;;4956523;28;20430;-85
2022/03/04 07:23:31;;;;;;;29.63;12.70;;;-1.30;99.90;;;;;;4965193;28;20039;-96
2022/03/04 07:26:17;;;;;;;37.03;15.17;;;-1.10;99.90;;;;;;5069358;23;20028;-93
2022/03/04 07:28:46;;;;;;;33.63;13.97;;;-1.40;99.90;;;;;;4944534;28;20070;-95
2022/03/04 07:31:13;;;;;;;35.37;13.77;;;-1.20;99.90;;;;;;4948079;29;20031;-96
2022/03/04 07:33:39;;;;;;;30.50;14.13;;;-1.50;99.90;;;;;;4943224;28;20054;-92
2022/03/04 07:36:05;;;;;;;35.53;14.90;;;-1.40;99.90;;;;;;4940638;29;20054;-91
2022/03/04 07:38:31;;;;;;;32.90;14.90;;;-1.40;99.90;;;;;;4937047;29;20431;-90
2022/03/04 07:41:02;;;;;;;33.37;14.20;;;-1.50;99.90;;;;;;4942250;29;20074;-96
2022/03/04 07:58:48;;;;;;;36.33;14.10;;;-1.00;99.90;;;;;;1658008;23;20241;-90
2022/03/04 08:01:19;;;;;;;37.57;13.53;;;-1.20;99.90;;;;;;4956923;28;20058;-96
2022/03/04 08:03:51;;;;;;;34.83;14.50;;;0.20;99.90;;;;;;5053450;23;20071;-93
2022/03/04 08:06:48;;;;;;;36.60;14.20;;;-0.20;99.90;;;;;;5009823;23;20110;31
2022/03/04 08:12:17;;;;;;;35.33;13.90;;;-0.90;99.90;;;;;;5563286;23;20027;-98
2022/03/04 08:14:48;;;;;;;36.47;15.07;;;-1.00;99.90;;;;;;4900521;29;20056;-96
2022/03/04 08:37:33;;;;;;;37.37;15.27;;;-0.30;99.90;;;;;;4916171;29;20048;-96
2022/03/04 08:39:59;;;;;;;34.30;15.67;;;1.00;99.90;;;;;;5106086;23;20062;-96
2022/03/04 08:42:25;;;;;;;34.03;14.63;;;-0.30;99.90;;;;;;5107055;23;20050;-96
2022/03/04 08:44:52;;;;;;;32.90;13.53;;;0.40;99.90;;;;;;4932163;29;20046;-96
2022/03/04 08:47:20;;;;;;;36.70;15.47;;;0.90;99.90;;;;;;4931983;29;20032;-96
2022/03/04 08:49:49;;;;;;;37.17;15.73;;;0.10;99.90;;;;;;4935467;29;20051;-96
2022/03/04 08:55:03;;;;;;;38.53;15.67;;;-0.10;99.90;;;;;;5695813;23;20273;-96
2022/03/04 08:57:30;;;;;;;39.23;16.97;;;-0.70;99.90;;;;;;4950423;29;20052;-96
2022/03/04 08:59:58;;;;;;;34.70;14.97;;;0.00;99.90;;;;;;4949587;29;20047;-96
2022/03/04 09:02:32;;;;;;;37.97;16.97;;;0.80;99.90;;;;;;4953142;29;20075;-96
2022/03/04 09:04:58;;;;;;;36.13;15.97;;;0.10;99.90;;;;;;4937067;29;20043;-96
2022/03/04 09:07:23;;;;;;;40.03;17.50;;;-0.40;99.90;;;;;;4959208;29;20061;-96
2022/03/04 09:09:49;;;;;;;37.10;16.57;;;0.00;99.90;;;;;;4951704;29;20134;-96
2022/03/04 09:12:17;;;;;;;38.27;17.10;;;0.50;99.90;;;;;;4948191;29;20039;-96
2022/03/04 09:14:43;;;;;;;34.83;15.83;;;0.70;99.90;;;;;;4947269;29;20047;-96
2022/03/04 09:17:09;;;;;;;36.70;15.53;;;1.50;99.90;;;;;;4950319;29;20039;-96
2022/03/04 09:19:37;;;;;;;37.83;15.77;;;0.90;99.90;;;;;;4965238;29;20054;-96
2022/03/04 09:22:03;;;;;;;33.40;15.07;;;1.60;99.90;;;;;;4948792;29;20047;-96
2022/03/04 09:24:32;;;;;;;34.80;15.60;;;0.40;99.90;;;;;;5037260;23;20103;-98
2022/03/04 09:27:04;;;;;;;36.03;15.30;;;0.00;99.90;;;;;;4927748;29;20083;-96
2022/03/04 09:29:33;;;;;;;32.73;14.33;;;1.60;99.90;;;;;;4925871;29;20496;-96
2022/03/04 09:32:00;;;;;;;35.93;16.10;;;1.10;99.90;;;;;;4924417;29;20040;-94
2022/03/04 09:34:25;;;;;;;34.57;15.80;;;1.00;99.90;;;;;;4921946;29;20090;-96
2022/03/04 09:36:51;;;;;;;37.40;16.43;;;1.00;99.90;;;;;;4922210;29;20098;-95
2022/03/04 09:39:17;;;;;;;36.87;16.53;;;1.20;99.90;;;;;;4921378;29;20099;-96
2022/03/04 09:41:45;;;;;;;38.53;16.37;;;1.20;99.90;;;;;;4924006;29;20040;-92
2022/03/04 09:44:15;;;;;;;33.53;16.03;;;1.20;99.90;;;;;;4940008;29;20043;-94
2022/03/04 09:46:42;;;;;;;31.87;15.40;;;1.30;99.90;;;;;;4935614;29;20055;-95
2022/03/04 09:49:08;;;;;;;32.23;15.20;;;1.50;99.90;;;;;;4922448;29;20039;-96
2022/03/04 09:51:35;;;;;;;34.97;15.63;;;1.60;99.90;;;;;;4928488;29;20034;-96
2022/03/04 09:54:01;;;;;;;32.00;15.83;;;1.70;99.90;;;;;;4943551;29;20059;-96
2022/03/04 09:56:27;;;;;;;32.23;15.30;;;2.10;99.90;;;;;;4922239;29;20444;-95
2022/03/04 09:58:52;;;;;;;31.70;14.67;;;2.60;99.90;;;;;;4922887;29;20086;-94
2022/03/04 10:01:19;;;;;;;34.63;16.27;;;2.80;99.90;;;;;;4923105;29;20047;-95
2022/03/04 10:03:50;;;;;;;33.93;15.40;;;1.90;99.90;;;;;;4921495;29;20051;-94
2022/03/04 10:06:17;;;;;;;33.07;15.63;;;2.10;99.90;;;;;;4921068;29;20048;-94
2022/03/04 10:08:46;;;;;;;31.17;14.77;;;3.30;99.90;;;;;;4921142;29;20138;-95
2022/03/04 10:11:22;;;;;;;34.27;16.70;;;3.00;99.90;;;;;;4921136;29;20063;-95
2022/03/04 10:13:54;;;;;;;34.70;15.83;;;2.00;99.90;;;;;;4921153;29;20043;-94
2022/03/04 10:16:26;;;;;;;35.00;16.77;;;1.70;99.90;;;;;;4921178;29;20365;-95
2022/03/04 10:19:17;;;;;;;33.67;14.70;;;3.10;99.90;;;;;;4921895;29;20510;-95
2022/03/04 10:22:03;;;;;;;33.13;16.33;;;2.10;99.90;;;;;;4920554;29;20055;-95
2022/03/04 10:24:32;;;;;;;34.30;15.73;;;2.20;99.90;;;;;;5016403;23;20055;-96
2022/03/04 10:27:09;;;;;;;34.00;15.80;;;1.70;99.90;;;;;;4954245;28;20043;-93
2022/03/04 10:29:50;;;;;;;33.50;16.03;;;2.50;99.90;;;;;;4940653;29;20125;-95
2022/03/04 10:32:19;;;;;;;31.60;15.37;;;2.60;99.90;;;;;;4940988;29;20043;-96
2022/03/04 10:34:56;;;;;;;30.87;14.67;;;2.70;99.90;;;;;;4943669;29;20073;-96
2022/03/04 10:37:59;;;;;;;29.60;14.93;;;3.00;99.90;;;;;;4947733;29;20083;-96
2022/03/04 10:40:26;;;;;;;32.00;14.97;;;3.10;99.90;;;;;;4948980;29;20062;-96
2022/03/04 10:43:04;;;;;;;31.67;14.47;;;3.20;99.90;;;;;;4946145;29;20039;-96
2022/03/04 10:45:34;;;;;;;29.67;14.37;;;3.10;99.90;;;;;;4940818;29;20043;-96
2022/03/04 10:48:17;;;;;;;28.17;13.73;;;3.20;99.90;;;;;;4940489;29;20403;-95
2022/03/04 10:50:50;;;;;;;26.50;13.30;;;5.10;99.90;;;;;;4938306;29;20384;-95
2022/03/04 10:53:21;;;;;;;28.17;14.30;;;4.50;99.90;;;;;;4928730;29;20043;-96
2022/03/04 10:55:49;;;;;;;28.13;14.53;;;4.40;99.90;;;;;;4928658;29;20039;-95
2022/03/04 10:58:20;;;;;;;29.20;14.87;;;4.30;99.90;;;;;;4923448;29;20048;-96
2022/03/04 11:00:53;;;;;;;30.63;14.97;;;4.50;99.90;;;;;;4929683;29;20043;-96
2022/03/04 11:03:28;;;;;;;28.15;15.18;;;4.90;99.90;;;;;;4921901;29;20039;-96
2022/03/04 11:05:56;;;;;;;27.43;13.87;;;5.10;99.90;;;;;;4922807;29;20050;-95
2022/03/04 11:08:24;;;;;;;26.17;14.10;;;5.00;99.90;;;;;;4925668;29;20040;-95
2022/03/04 11:10:51;;;;;;;25.97;13.33;;;5.10;99.90;;;;;;4929477;29;20093;-96
2022/03/04 11:13:17;;;;;;;26.77;13.00;;;5.20;99.90;;;;;;4923752;29;20074;-93
2022/03/04 11:15:47;;;;;;;25.40;13.57;;;6.20;99.90;;;;;;4921896;29;20448;-96
2022/03/04 11:18:15;;;;;;;24.83;12.47;;;6.60;99.90;;;;;;4937829;29;20095;-95
2022/03/04 11:20:59;;;;;;;24.40;12.20;;;6.20;99.90;;;;;;4934059;29;20043;-95
2022/03/04 11:23:27;;;;;;;23.05;11.77;;;7.00;99.90;;;;;;4919888;29;20052;-96
2022/03/04 11:26:18;;;;;;;23.87;12.07;;;7.20;99.90;;;;;;4920643;29;20556;-96
2022/03/04 11:29:06;;;;;;;20.90;11.47;;;6.30;99.90;;;;;;4932483;28;20091;-96
2022/03/04 11:31:32;;;;;;;21.13;11.63;;;6.20;99.90;;;;;;4950960;23;20055;-96
2022/03/04 11:37:14;;;;;;;21.97;11.00;;;7.20;99.90;;;;;;5182139;23;20048;-96
2022/03/04 11:40:01;;;;;;;21.85;11.63;;;7.90;99.90;;;;;;5033085;23;20995;-96
2022/03/04 11:45:02;;;;;;;20.98;11.57;;;7.20;99.90;;;;;;4922440;29;20057;-96
2022/03/04 11:48:14;;;;;;;22.37;11.70;;;7.00;99.90;;;;;;5137627;23;20044;-96
2022/03/04 11:51:33;;;;;;;19.93;11.20;;;7.60;99.90;;;;;;5430426;23;20040;-96
2022/03/04 12:05:14;;;;;;;19.77;10.57;;;8.00;99.90;;;;;;4957748;23;20060;-96
2022/03/04 12:07:46;;;;;;;18.27;10.73;;;9.30;99.90;;;;;;4924930;29;20055;-95
2022/03/04 12:10:17;;;;;;;18.58;10.07;;;8.60;99.90;;;;;;4924556;29;20074;-95
2022/03/04 12:13:07;;;;;;;17.58;9.85;;;9.70;99.90;;;;;;4935468;23;20112;-96
2022/03/04 12:15:39;;;;;;;17.58;9.55;;;9.30;99.90;;;;;;4907633;29;20080;-96
2022/03/04 12:18:26;;;;;;;15.88;8.63;;;8.60;99.90;;;;;;4912913;29;20039;-93
2022/03/04 12:20:55;;;;;;;19.08;9.82;;;8.70;99.90;;;;;;4908120;29;20404;-93
2022/03/04 12:23:46;;;;;;;18.27;9.50;;;8.00;99.90;;;;;;4905999;29;20373;-94
2022/03/04 12:26:20;;;;;;;18.50;9.85;;;8.40;99.90;;;;;;4903453;29;20051;-91
2022/03/04 12:29:29;;;;;;;17.92;9.48;;;9.00;99.90;;;;;;4902617;29;20055;-93
2022/03/04 12:31:55;;;;;;;19.40;9.57;;;9.40;99.90;;;;;;4888803;29;20052;-92
2022/03/04 12:34:27;;;;;;;17.45;9.27;;;10.50;99.90;;;;;;4902343;29;20055;-92
2022/03/04 12:36:53;;;;;;;17.55;9.15;;;9.60;99.90;;;;;;4903252;29;20040;-91
2022/03/04 12:39:32;;;;;;;17.77;9.45;;;9.40;99.90;;;;;;4901956;29;20040;-92
2022/03/04 12:42:10;;;;;;;17.92;9.10;;;9.30;99.90;;;;;;4910634;29;20058;-92
2022/03/04 12:44:46;;;;;;;17.02;9.05;;;9.40;99.90;;;;;;4908212;29;20444;-93
2022/03/04 12:47:14;;;;;;;17.20;8.82;;;9.30;99.90;;;;;;4915417;29;20079;-92
2022/03/04 12:49:52;;;;;;;;;;;;;;;;;;;;;
2022/03/04 12:52:26;;;;;;;15.43;8.70;;;9.40;99.90;;;;;;4901923;29;20059;-94
2022/03/04 12:54:52;;;;;;;17.40;9.02;;;9.30;99.90;;;;;;4902341;29;20140;-92
2022/03/04 12:57:28;;;;;;;17.90;9.25;;;9.10;99.90;;;;;;4902888;29;20087;-94
2022/03/04 12:59:54;;;;;;;16.85;9.48;;;9.50;99.90;;;;;;4902690;29;20052;-93
2022/03/04 13:02:19;;;;;;;17.13;9.15;;;9.70;99.90;;;;;;4901906;29;20054;-92
2022/03/04 13:04:59;;;;;;;17.92;9.50;;;9.70;99.90;;;;;;4902072;29;20048;-90
2022/03/04 13:07:28;;;;;;;19.05;10.13;;;9.70;99.90;;;;;;4909172;29;20048;-91
2022/03/04 13:09:55;;;;;;;16.63;8.68;;;9.80;99.90;;;;;;4912438;29;20051;-92
2022/03/04 13:12:26;;;;;;;16.48;8.88;;;9.90;99.90;;;;;;4921152;29;20048;-92
2022/03/04 13:15:13;;;;;;;16.25;9.02;;;10.90;99.90;;;;;;4921091;29;20481;-93
2022/03/04 13:17:39;;;;;;;16.10;8.88;;;10.10;99.90;;;;;;4920921;29;20504;-93
2022/03/04 13:20:20;;;;;;;16.88;9.00;;;10.10;99.90;;;;;;4921186;29;20063;-93
2022/03/04 13:22:45;;;;;;;16.38;8.85;;;10.20;99.90;;;;;;4923839;29;20107;-91
2022/03/04 13:25:11;;;;;;;16.48;8.65;;;10.50;99.90;;;;;;4920849;29;20047;-91
2022/03/04 13:27:40;;;;;;;18.92;8.60;;;10.20;99.90;;;;;;4921081;29;20467;-91
2022/03/04 13:30:09;;;;;;;15.93;8.95;;;9.90;99.90;;;;;;4920656;29;20051;-90
2022/03/04 13:32:46;;;;;;;16.55;8.73;;;10.00;99.90;;;;;;4923834;29;20047;-91
2022/03/04 13:35:14;;;;;;;16.73;8.10;;;10.20;99.90;;;;;;4920691;29;20083;-91
2022/03/04 13:37:46;;;;;;;15.18;8.35;;;10.20;99.90;;;;;;4912785;29;20062;-94
2022/03/04 13:40:49;;;;;;;15.85;8.02;;;10.10;99.90;;;;;;4938006;29;20043;-90